sensor_id;sensor_type;location;lat;lon;timestamp;pressure;altitude;pressure_sealevel;temperature
74485;BMP280;62942;52.462;10.846;2024-01-16T00:00:47;99350;;;
74485;BMP280;62942;52.462;10.846;2024-01-16T00:01:57;99340;;;
74485;BMP280;62942;52.462;10.846;2024-01-16T00:02:57;99350;;;
74485;BMP280;62942;52.462;10.846;2024-01-16T00:03:57;99350;;;
74485;BMP280;62942;52.462;10.846;2024-01-16T00:04:57;99350;;;
74485;BMP280;62942;52.462;10.846;2024-01-16T00:06:07;99360;;;
74485;BMP280;62942;52.462;10.846;2024-01-16T00:07:17;99350;;;
74485;BMP280;62942;52.462;10.846;2024-01-16T00:08:27;99350;;;
74485;BMP280;62942;52.462;10.846;2024-01-16T00:09:37;99350;;;
74485;BMP280;62942;52.462;10.846;2024-01-16T00:10:47;99350;;;
74485;BMP280;62942;52.462;10.846;2024-01-16T00:11:57;99350;;;
74485;BMP280;62942;52.462;10.846;2024-01-16T00:13:07;99370;;;
74485;BMP280;62942;52.462;10.846;2024-01-16T00:14:17;99360;;;
74485;BMP280;62942;52.462;10.846;2024-01-16T00:15:27;99360;;;
74485;BMP280;62942;52.462;10.846;2024-01-16T00:16:27;99370;;;
74485;BMP280;62942;52.462;10.846;2024-01-16T00:17:37;99370;;;
74485;BMP280;62942;52.462;10.846;2024-01-16T00:18:47;99370;;;
74485;BMP280;62942;52.462;10.846;2024-01-16T00:19:47;99370;;;
74485;BMP280;62942;52.462;10.846;2024-01-16T00:20:47;99380;;;
74485;BMP280;62942;52.462;10.846;2024-01-16T00:21:47;99380;;;
74485;BMP280;62942;52.462;10.846;2024-01-16T00:22:57;99380;;;
74485;BMP280;62942;52.462;10.846;2024-01-16T00:23:57;99390;;;
74485;BMP280;62942;52.462;10.846;2024-01-16T00:24:57;99380;;;
74485;BMP280;62942;52.462;10.846;2024-01-16T00:26:07;99390;;;
74485;BMP280;62942;52.462;10.846;2024-01-16T00:27:17;99390;;;
74485;BMP280;62942;52.462;10.846;2024-01-16T00:28:27;99390;;;
74485;BMP280;62942;52.462;10.846;2024-01-16T00:29:37;99390;;;
74485;BMP280;62942;52.462;10.846;2024-01-16T00:30:37;99390;;;
74485;BMP280;62942;52.462;10.846;2024-01-16T00:31:47;99390;;;
74485;BMP280;62942;52.462;10.846;2024-01-16T00:32:57;99390;;;
74485;BMP280;62942;52.462;10.846;2024-01-16T00:33:57;99390;;;
74485;BMP280;62942;52.462;10.846;2024-01-16T00:35:07;99400;;;
74485;BMP280;62942;52.462;10.846;2024-01-16T00:36:07;99400;;;
74485;BMP280;62942;52.462;10.846;2024-01-16T00:37:17;99400;;;
74485;BMP280;62942;52.462;10.846;2024-01-16T00:38:27;99400;;;
74485;BMP280;62942;52.462;10.846;2024-01-16T00:39:37;99400;;;
74485;BMP280;62942;52.462;10.846;2024-01-16T00:40:47;99400;;;
74485;BMP280;62942;52.462;10.846;2024-01-16T00:41:47;99400;;;
74485;BMP280;62942;52.462;10.846;2024-01-16T00:42:57;99390;;;
74485;BMP280;62942;52.462;10.846;2024-01-16T00:43:57;99390;;;
74485;BMP280;62942;52.462;10.846;2024-01-16T00:44:57;99400;;;
74485;BMP280;62942;52.462;10.846;2024-01-16T00:46:07;99390;;;
74485;BMP280;62942;52.462;10.846;2024-01-16T00:47:07;99390;;;
74485;BMP280;62942;52.462;10.846;2024-01-16T00:48:17;99390;;;
74485;BMP280;62942;52.462;10.846;2024-01-16T00:49:27;99400;;;
74485;BMP280;62942;52.462;10.846;2024-01-16T00:50:27;99390;;;
74485;BMP280;62942;52.462;10.846;2024-01-16T00:51:27;99390;;;
74485;BMP280;62942;52.462;10.846;2024-01-16T00:52:37;99400;;;
74485;BMP280;62942;52.462;10.846;2024-01-16T00:53:39;99400;;;
74485;BMP280;62942;52.462;10.846;2024-01-16T00:54:47;99420;;;
74485;BMP280;62942;52.462;10.846;2024-01-16T00:55:57;99420;;;
74485;BMP280;62942;52.462;10.846;2024-01-16T00:57:07;99420;;;
74485;BMP280;62942;52.462;10.846;2024-01-16T00:58:07;99420;;;
74485;BMP280;62942;52.462;10.846;2024-01-16T00:59:17;99430;;;
74485;BMP280;62942;52.462;10.846;2024-01-16T01:00:27;99430;;;
74485;BMP280;62942;52.462;10.846;2024-01-16T01:01:37;99430;;;
74485;BMP280;62942;52.462;10.846;2024-01-16T01:02:47;99430;;;
74485;BMP280;62942;52.462;10.846;2024-01-16T01:03:57;99430;;;
74485;BMP280;62942;52.462;10.846;2024-01-16T01:05:07;99430;;;
74485;BMP280;62942;52.462;10.846;2024-01-16T01:06:17;99430;;;
74485;BMP280;62942;52.462;10.846;2024-01-16T01:07:27;99430;;;
74485;BMP280;62942;52.462;10.846;2024-01-16T01:08:27;99430;;;
74485;BMP280;62942;52.462;10.846;2024-01-16T01:09:27;99430;;;
74485;BMP280;62942;52.462;10.846;2024-01-16T01:10:37;99430;;;
74485;BMP280;62942;52.462;10.846;2024-01-16T01:11:47;99420;;;
74485;BMP280;62942;52.462;10.846;2024-01-16T01:12:57;99430;;;
74485;BMP280;62942;52.462;10.846;2024-01-16T01:13:57;99430;;;
74485;BMP280;62942;52.462;10.846;2024-01-16T01:15:07;99430;;;
74485;BMP280;62942;52.462;10.846;2024-01-16T01:16:07;99430;;;
74485;BMP280;62942;52.462;10.846;2024-01-16T01:17:17;99430;;;
74485;BMP280;62942;52.462;10.846;2024-01-16T01:18:17;99440;;;
74485;BMP280;62942;52.462;10.846;2024-01-16T01:19:27;99460;;;
74485;BMP280;62942;52.462;10.846;2024-01-16T01:20:37;99460;;;
74485;BMP280;62942;52.462;10.846;2024-01-16T01:21:47;99460;;;
74485;BMP280;62942;52.462;10.846;2024-01-16T01:22:57;99460;;;
74485;BMP280;62942;52.462;10.846;2024-01-16T01:23:57;99460;;;
74485;BMP280;62942;52.462;10.846;2024-01-16T01:25:07;99450;;;
74485;BMP280;62942;52.462;10.846;2024-01-16T01:26:17;99460;;;
74485;BMP280;62942;52.462;10.846;2024-01-16T01:27:17;99460;;;
74485;BMP280;62942;52.462;10.846;2024-01-16T01:28:27;99470;;;
74485;BMP280;62942;52.462;10.846;2024-01-16T01:29:37;99470;;;
74485;BMP280;62942;52.462;10.846;2024-01-16T01:30:47;99470;;;
74485;BMP280;62942;52.462;10.846;2024-01-16T01:31:57;99470;;;
74485;BMP280;62942;52.462;10.846;2024-01-16T01:32:57;99470;;;
74485;BMP280;62942;52.462;10.846;2024-01-16T01:34:07;99480;;;
74485;BMP280;62942;52.462;10.846;2024-01-16T01:35:07;99480;;;
74485;BMP280;62942;52.462;10.846;2024-01-16T01:36:17;99480;;;
74485;BMP280;62942;52.462;10.846;2024-01-16T01:37:17;99480;;;
74485;BMP280;62942;52.462;10.846;2024-01-16T01:38:27;99480;;;
74485;BMP280;62942;52.462;10.846;2024-01-16T01:39:37;99490;;;
74485;BMP280;62942;52.462;10.846;2024-01-16T01:40:47;99490;;;
74485;BMP280;62942;52.462;10.846;2024-01-16T01:41:57;99500;;;
74485;BMP280;62942;52.462;10.846;2024-01-16T01:43:23;99490;;;
74485;BMP280;62942;52.462;10.846;2024-01-16T01:44:17;99500;;;
74485;BMP280;62942;52.462;10.846;2024-01-16T01:45:17;99500;;;
74485;BMP280;62942;52.462;10.846;2024-01-16T01:46:27;99490;;;
74485;BMP280;62942;52.462;10.846;2024-01-16T01:47:37;99500;;;
74485;BMP280;62942;52.462;10.846;2024-01-16T01:48:47;99490;;;
74485;BMP280;62942;52.462;10.846;2024-01-16T01:49:47;99490;;;
74485;BMP280;62942;52.462;10.846;2024-01-16T01:50:57;99500;;;
74485;BMP280;62942;52.462;10.846;2024-01-16T01:51:57;99500;;;
74485;BMP280;62942;52.462;10.846;2024-01-16T01:53:07;99500;;;
74485;BMP280;62942;52.462;10.846;2024-01-16T01:54:07;99510;;;
74485;BMP280;62942;52.462;10.846;2024-01-16T01:55:08;99510;;;
74485;BMP280;62942;52.462;10.846;2024-01-16T01:56:18;99500;;;
74485;BMP280;62942;52.462;10.846;2024-01-16T01:57:27;99500;;;
74485;BMP280;62942;52.462;10.846;2024-01-16T01:58:37;99500;;;
74485;BMP280;62942;52.462;10.846;2024-01-16T01:59:37;99510;;;
74485;BMP280;62942;52.462;10.846;2024-01-16T02:00:47;99510;;;
74485;BMP280;62942;52.462;10.846;2024-01-16T02:01:47;99510;;;
74485;BMP280;62942;52.462;10.846;2024-01-16T02:02:57;99500;;;
74485;BMP280;62942;52.462;10.846;2024-01-16T02:03:57;99510;;;
74485;BMP280;62942;52.462;10.846;2024-01-16T02:04:57;99500;;;
74485;BMP280;62942;52.462;10.846;2024-01-16T02:06:07;99510;;;
74485;BMP280;62942;52.462;10.846;2024-01-16T02:07:17;99510;;;
74485;BMP280;62942;52.462;10.846;2024-01-16T02:08:27;99520;;;
74485;BMP280;62942;52.462;10.846;2024-01-16T02:09:37;99520;;;
74485;BMP280;62942;52.462;10.846;2024-01-16T02:10:47;99520;;;
74485;BMP280;62942;52.462;10.846;2024-01-16T02:11:57;99520;;;
74485;BMP280;62942;52.462;10.846;2024-01-16T02:13:07;99520;;;
74485;BMP280;62942;52.462;10.846;2024-01-16T02:14:17;99530;;;
74485;BMP280;62942;52.462;10.846;2024-01-16T02:15:27;99540;;;
74485;BMP280;62942;52.462;10.846;2024-01-16T02:16:37;99530;;;
74485;BMP280;62942;52.462;10.846;2024-01-16T02:17:47;99530;;;
74485;BMP280;62942;52.462;10.846;2024-01-16T02:18:57;99530;;;
74485;BMP280;62942;52.462;10.846;2024-01-16T02:20:07;99540;;;
74485;BMP280;62942;52.462;10.846;2024-01-16T02:21:07;99540;;;
74485;BMP280;62942;52.462;10.846;2024-01-16T02:22:19;99540;;;
74485;BMP280;62942;52.462;10.846;2024-01-16T02:23:27;99540;;;
74485;BMP280;62942;52.462;10.846;2024-01-16T02:24:27;99540;;;
74485;BMP280;62942;52.462;10.846;2024-01-16T02:25:37;99540;;;
74485;BMP280;62942;52.462;10.846;2024-01-16T02:26:47;99550;;;
74485;BMP280;62942;52.462;10.846;2024-01-16T02:27:57;99550;;;
74485;BMP280;62942;52.462;10.846;2024-01-16T02:29:07;99550;;;
74485;BMP280;62942;52.462;10.846;2024-01-16T02:30:07;99550;;;
74485;BMP280;62942;52.462;10.846;2024-01-16T02:31:07;99560;;;
74485;BMP280;62942;52.462;10.846;2024-01-16T02:32:17;99550;;;
74485;BMP280;62942;52.462;10.846;2024-01-16T02:33:27;99550;;;
74485;BMP280;62942;52.462;10.846;2024-01-16T02:34:37;99560;;;
74485;BMP280;62942;52.462;10.846;2024-01-16T02:35:37;99560;;;
74485;BMP280;62942;52.462;10.846;2024-01-16T02:36:47;99560;;;
74485;BMP280;62942;52.462;10.846;2024-01-16T02:37:47;99560;;;
74485;BMP280;62942;52.462;10.846;2024-01-16T02:38:57;99560;;;
74485;BMP280;62942;52.462;10.846;2024-01-16T02:39:57;99550;;;
74485;BMP280;62942;52.462;10.846;2024-01-16T02:41:07;99560;;;
74485;BMP280;62942;52.462;10.846;2024-01-16T02:42:17;99550;;;
74485;BMP280;62942;52.462;10.846;2024-01-16T02:43:27;99550;;;
74485;BMP280;62942;52.462;10.846;2024-01-16T02:44:37;99550;;;
74485;BMP280;62942;52.462;10.846;2024-01-16T02:45:47;99560;;;
74485;BMP280;62942;52.462;10.846;2024-01-16T02:46:57;99560;;;
74485;BMP280;62942;52.462;10.846;2024-01-16T02:48:07;99570;;;
74485;BMP280;62942;52.462;10.846;2024-01-16T02:49:07;99570;;;
74485;BMP280;62942;52.462;10.846;2024-01-16T02:50:17;99560;;;
74485;BMP280;62942;52.462;10.846;2024-01-16T02:51:17;99570;;;
74485;BMP280;62942;52.462;10.846;2024-01-16T02:52:17;99560;;;
74485;BMP280;62942;52.462;10.846;2024-01-16T02:53:27;99560;;;
74485;BMP280;62942;52.462;10.846;2024-01-16T02:54:37;99570;;;
74485;BMP280;62942;52.462;10.846;2024-01-16T02:55:47;99560;;;
74485;BMP280;62942;52.462;10.846;2024-01-16T02:56:57;99560;;;
74485;BMP280;62942;52.462;10.846;2024-01-16T02:57:57;99560;;;
74485;BMP280;62942;52.462;10.846;2024-01-16T02:59:07;99570;;;
74485;BMP280;62942;52.462;10.846;2024-01-16T03:00:17;99560;;;
74485;BMP280;62942;52.462;10.846;2024-01-16T03:01:17;99560;;;
74485;BMP280;62942;52.462;10.846;2024-01-16T03:02:17;99570;;;
74485;BMP280;62942;52.462;10.846;2024-01-16T03:03:17;99570;;;
74485;BMP280;62942;52.462;10.846;2024-01-16T03:04:27;99570;;;
74485;BMP280;62942;52.462;10.846;2024-01-16T03:05:37;99580;;;
74485;BMP280;62942;52.462;10.846;2024-01-16T03:06:37;99580;;;
74485;BMP280;62942;52.462;10.846;2024-01-16T03:07:47;99580;;;
74485;BMP280;62942;52.462;10.846;2024-01-16T03:08:57;99580;;;
74485;BMP280;62942;52.462;10.846;2024-01-16T03:09:57;99570;;;
74485;BMP280;62942;52.462;10.846;2024-01-16T03:10:57;99580;;;
74485;BMP280;62942;52.462;10.846;2024-01-16T03:12:07;99580;;;
74485;BMP280;62942;52.462;10.846;2024-01-16T03:13:17;99580;;;
74485;BMP280;62942;52.462;10.846;2024-01-16T03:14:27;99580;;;
74485;BMP280;62942;52.462;10.846;2024-01-16T03:15:37;99590;;;
74485;BMP280;62942;52.462;10.846;2024-01-16T03:16:47;99590;;;
74485;BMP280;62942;52.462;10.846;2024-01-16T03:17:47;99590;;;
74485;BMP280;62942;52.462;10.846;2024-01-16T03:18:47;99580;;;
74485;BMP280;62942;52.462;10.846;2024-01-16T03:19:57;99580;;;
74485;BMP280;62942;52.462;10.846;2024-01-16T03:21:07;99580;;;
74485;BMP280;62942;52.462;10.846;2024-01-16T03:22:17;99580;;;
74485;BMP280;62942;52.462;10.846;2024-01-16T03:23:17;99580;;;
74485;BMP280;62942;52.462;10.846;2024-01-16T03:24:27;99590;;;
74485;BMP280;62942;52.462;10.846;2024-01-16T03:25:27;99580;;;
74485;BMP280;62942;52.462;10.846;2024-01-16T03:26:37;99590;;;
74485;BMP280;62942;52.462;10.846;2024-01-16T03:27:37;99600;;;
74485;BMP280;62942;52.462;10.846;2024-01-16T03:28:47;99600;;;
74485;BMP280;62942;52.462;10.846;2024-01-16T03:29:57;99610;;;
74485;BMP280;62942;52.462;10.846;2024-01-16T03:31:07;99600;;;
74485;BMP280;62942;52.462;10.846;2024-01-16T03:32:07;99600;;;
74485;BMP280;62942;52.462;10.846;2024-01-16T03:33:17;99610;;;
74485;BMP280;62942;52.462;10.846;2024-01-16T03:34:27;99610;;;
74485;BMP280;62942;52.462;10.846;2024-01-16T03:35:37;99600;;;
74485;BMP280;62942;52.462;10.846;2024-01-16T03:36:47;99610;;;
74485;BMP280;62942;52.462;10.846;2024-01-16T03:37:47;99610;;;
74485;BMP280;62942;52.462;10.846;2024-01-16T03:38:57;99610;;;
74485;BMP280;62942;52.462;10.846;2024-01-16T03:40:07;99610;;;
74485;BMP280;62942;52.462;10.846;2024-01-16T03:41:17;99610;;;
74485;BMP280;62942;52.462;10.846;2024-01-16T03:42:27;99620;;;
74485;BMP280;62942;52.462;10.846;2024-01-16T03:43:37;99620;;;
74485;BMP280;62942;52.462;10.846;2024-01-16T03:44:46;99620;;;
74485;BMP280;62942;52.462;10.846;2024-01-16T03:45:57;99630;;;
74485;BMP280;62942;52.462;10.846;2024-01-16T03:47:07;99620;;;
74485;BMP280;62942;52.462;10.846;2024-01-16T03:48:07;99630;;;
74485;BMP280;62942;52.462;10.846;2024-01-16T03:49:17;99620;;;
74485;BMP280;62942;52.462;10.846;2024-01-16T03:50:27;99630;;;
74485;BMP280;62942;52.462;10.846;2024-01-16T03:51:37;99630;;;
74485;BMP280;62942;52.462;10.846;2024-01-16T03:52:47;99630;;;
74485;BMP280;62942;52.462;10.846;2024-01-16T03:53:56;99640;;;
74485;BMP280;62942;52.462;10.846;2024-01-16T03:54:56;99630;;;
74485;BMP280;62942;52.462;10.846;2024-01-16T03:56:07;99630;;;
74485;BMP280;62942;52.462;10.846;2024-01-16T03:57:17;99630;;;
74485;BMP280;62942;52.462;10.846;2024-01-16T03:58:26;99630;;;
74485;BMP280;62942;52.462;10.846;2024-01-16T03:59:37;99630;;;
74485;BMP280;62942;52.462;10.846;2024-01-16T04:00:46;99640;;;
74485;BMP280;62942;52.462;10.846;2024-01-16T04:01:46;99640;;;
74485;BMP280;62942;52.462;10.846;2024-01-16T04:02:56;99650;;;
74485;BMP280;62942;52.462;10.846;2024-01-16T04:03:57;99650;;;
74485;BMP280;62942;52.462;10.846;2024-01-16T04:05:07;99650;;;
74485;BMP280;62942;52.462;10.846;2024-01-16T04:06:17;99650;;;
74485;BMP280;62942;52.462;10.846;2024-01-16T04:07:27;99650;;;
74485;BMP280;62942;52.462;10.846;2024-01-16T04:08:26;99650;;;
74485;BMP280;62942;52.462;10.846;2024-01-16T04:09:36;99650;;;
74485;BMP280;62942;52.462;10.846;2024-01-16T04:10:36;99660;;;
74485;BMP280;62942;52.462;10.846;2024-01-16T04:11:49;99660;;;
74485;BMP280;62942;52.462;10.846;2024-01-16T04:12:59;99660;;;
74485;BMP280;62942;52.462;10.846;2024-01-16T04:13:56;99660;;;
74485;BMP280;62942;52.462;10.846;2024-01-16T04:15:07;99660;;;
74485;BMP280;62942;52.462;10.846;2024-01-16T04:16:16;99660;;;
74485;BMP280;62942;52.462;10.846;2024-01-16T04:17:16;99670;;;
74485;BMP280;62942;52.462;10.846;2024-01-16T04:18:26;99660;;;
74485;BMP280;62942;52.462;10.846;2024-01-16T04:19:36;99650;;;
74485;BMP280;62942;52.462;10.846;2024-01-16T04:20:36;99660;;;
74485;BMP280;62942;52.462;10.846;2024-01-16T04:21:46;99650;;;
74485;BMP280;62942;52.462;10.846;2024-01-16T04:22:46;99660;;;
74485;BMP280;62942;52.462;10.846;2024-01-16T04:23:46;99660;;;
74485;BMP280;62942;52.462;10.846;2024-01-16T04:24:56;99660;;;
74485;BMP280;62942;52.462;10.846;2024-01-16T04:26:06;99650;;;
74485;BMP280;62942;52.462;10.846;2024-01-16T04:27:06;99650;;;
74485;BMP280;62942;52.462;10.846;2024-01-16T04:28:07;99650;;;
74485;BMP280;62942;52.462;10.846;2024-01-16T04:29:16;99660;;;
74485;BMP280;62942;52.462;10.846;2024-01-16T04:30:16;99650;;;
74485;BMP280;62942;52.462;10.846;2024-01-16T04:31:26;99660;;;
74485;BMP280;62942;52.462;10.846;2024-01-16T04:32:26;99650;;;
74485;BMP280;62942;52.462;10.846;2024-01-16T04:33:36;99650;;;
74485;BMP280;62942;52.462;10.846;2024-01-16T04:34:36;99660;;;
74485;BMP280;62942;52.462;10.846;2024-01-16T04:35:46;99660;;;
74485;BMP280;62942;52.462;10.846;2024-01-16T04:36:57;99660;;;
74485;BMP280;62942;52.462;10.846;2024-01-16T04:38:06;99660;;;
74485;BMP280;62942;52.462;10.846;2024-01-16T04:39:06;99660;;;
74485;BMP280;62942;52.462;10.846;2024-01-16T04:40:07;99660;;;
74485;BMP280;62942;52.462;10.846;2024-01-16T04:41:17;99660;;;
74485;BMP280;62942;52.462;10.846;2024-01-16T04:42:26;99670;;;
74485;BMP280;62942;52.462;10.846;2024-01-16T04:43:36;99670;;;
74485;BMP280;62942;52.462;10.846;2024-01-16T04:44:46;99670;;;
74485;BMP280;62942;52.462;10.846;2024-01-16T04:45:56;99670;;;
74485;BMP280;62942;52.462;10.846;2024-01-16T04:47:06;99670;;;
74485;BMP280;62942;52.462;10.846;2024-01-16T04:48:06;99670;;;
74485;BMP280;62942;52.462;10.846;2024-01-16T04:49:16;99670;;;
74485;BMP280;62942;52.462;10.846;2024-01-16T04:50:26;99660;;;
74485;BMP280;62942;52.462;10.846;2024-01-16T04:51:36;99680;;;
74485;BMP280;62942;52.462;10.846;2024-01-16T04:52:46;99670;;;
74485;BMP280;62942;52.462;10.846;2024-01-16T04:53:46;99670;;;
74485;BMP280;62942;52.462;10.846;2024-01-16T04:54:56;99670;;;
74485;BMP280;62942;52.462;10.846;2024-01-16T04:56:06;99670;;;
74485;BMP280;62942;52.462;10.846;2024-01-16T04:57:06;99670;;;
74485;BMP280;62942;52.462;10.846;2024-01-16T04:58:16;99670;;;
74485;BMP280;62942;52.462;10.846;2024-01-16T04:59:16;99670;;;
74485;BMP280;62942;52.462;10.846;2024-01-16T05:00:26;99670;;;
74485;BMP280;62942;52.462;10.846;2024-01-16T05:01:26;99670;;;
74485;BMP280;62942;52.462;10.846;2024-01-16T05:02:36;99670;;;
74485;BMP280;62942;52.462;10.846;2024-01-16T05:03:46;99670;;;
74485;BMP280;62942;52.462;10.846;2024-01-16T05:04:56;99670;;;
74485;BMP280;62942;52.462;10.846;2024-01-16T05:06:11;99680;;;
74485;BMP280;62942;52.462;10.846;2024-01-16T05:07:16;99670;;;
74485;BMP280;62942;52.462;10.846;2024-01-16T05:08:27;99680;;;
74485;BMP280;62942;52.462;10.846;2024-01-16T05:09:36;99670;;;
74485;BMP280;62942;52.462;10.846;2024-01-16T05:10:46;99670;;;
74485;BMP280;62942;52.462;10.846;2024-01-16T05:11:56;99670;;;
74485;BMP280;62942;52.462;10.846;2024-01-16T05:12:56;99670;;;
74485;BMP280;62942;52.462;10.846;2024-01-16T05:13:56;99660;;;
74485;BMP280;62942;52.462;10.846;2024-01-16T05:15:07;99660;;;
74485;BMP280;62942;52.462;10.846;2024-01-16T05:16:06;99660;;;
74485;BMP280;62942;52.462;10.846;2024-01-16T05:17:16;99660;;;
74485;BMP280;62942;52.462;10.846;2024-01-16T05:18:16;99660;;;
74485;BMP280;62942;52.462;10.846;2024-01-16T05:19:26;99670;;;
74485;BMP280;62942;52.462;10.846;2024-01-16T05:20:26;99670;;;
74485;BMP280;62942;52.462;10.846;2024-01-16T05:21:36;99660;;;
74485;BMP280;62942;52.462;10.846;2024-01-16T05:22:36;99670;;;
74485;BMP280;62942;52.462;10.846;2024-01-16T05:23:36;99670;;;
74485;BMP280;62942;52.462;10.846;2024-01-16T05:24:46;99670;;;
74485;BMP280;62942;52.462;10.846;2024-01-16T05:25:56;99670;;;
74485;BMP280;62942;52.462;10.846;2024-01-16T05:26:56;99670;;;
74485;BMP280;62942;52.462;10.846;2024-01-16T05:27:56;99670;;;
74485;BMP280;62942;52.462;10.846;2024-01-16T05:29:06;99670;;;
74485;BMP280;62942;52.462;10.846;2024-01-16T05:30:16;99670;;;
74485;BMP280;62942;52.462;10.846;2024-01-16T05:31:26;99670;;;
74485;BMP280;62942;52.462;10.846;2024-01-16T05:32:26;99670;;;
74485;BMP280;62942;52.462;10.846;2024-01-16T05:33:27;99670;;;
74485;BMP280;62942;52.462;10.846;2024-01-16T05:34:36;99670;;;
74485;BMP280;62942;52.462;10.846;2024-01-16T05:35:37;99680;;;
74485;BMP280;62942;52.462;10.846;2024-01-16T05:36:46;99670;;;
74485;BMP280;62942;52.462;10.846;2024-01-16T05:37:46;99680;;;
74485;BMP280;62942;52.462;10.846;2024-01-16T05:38:46;99670;;;
74485;BMP280;62942;52.462;10.846;2024-01-16T05:39:57;99680;;;
74485;BMP280;62942;52.462;10.846;2024-01-16T05:41:06;99680;;;
74485;BMP280;62942;52.462;10.846;2024-01-16T05:42:06;99680;;;
74485;BMP280;62942;52.462;10.846;2024-01-16T05:43:06;99680;;;
74485;BMP280;62942;52.462;10.846;2024-01-16T05:44:16;99680;;;
74485;BMP280;62942;52.462;10.846;2024-01-16T05:45:16;99680;;;
74485;BMP280;62942;52.462;10.846;2024-01-16T05:46:26;99680;;;
74485;BMP280;62942;52.462;10.846;2024-01-16T05:47:36;99680;;;
74485;BMP280;62942;52.462;10.846;2024-01-16T05:48:46;99680;;;
74485;BMP280;62942;52.462;10.846;2024-01-16T05:49:56;99680;;;
74485;BMP280;62942;52.462;10.846;2024-01-16T05:50:56;99680;;;
74485;BMP280;62942;52.462;10.846;2024-01-16T05:52:06;99690;;;
74485;BMP280;62942;52.462;10.846;2024-01-16T05:53:06;99690;;;
74485;BMP280;62942;52.462;10.846;2024-01-16T05:54:16;99690;;;
74485;BMP280;62942;52.462;10.846;2024-01-16T05:55:26;99680;;;
74485;BMP280;62942;52.462;10.846;2024-01-16T05:56:36;99690;;;
74485;BMP280;62942;52.462;10.846;2024-01-16T05:57:46;99700;;;
74485;BMP280;62942;52.462;10.846;2024-01-16T05:58:46;99700;;;
74485;BMP280;62942;52.462;10.846;2024-01-16T05:59:56;99700;;;
74485;BMP280;62942;52.462;10.846;2024-01-16T06:01:06;99700;;;
74485;BMP280;62942;52.462;10.846;2024-01-16T06:02:06;99700;;;
74485;BMP280;62942;52.462;10.846;2024-01-16T06:03:16;99690;;;
74485;BMP280;62942;52.462;10.846;2024-01-16T06:04:26;99700;;;
74485;BMP280;62942;52.462;10.846;2024-01-16T06:05:36;99700;;;
74485;BMP280;62942;52.462;10.846;2024-01-16T06:06:46;99700;;;
74485;BMP280;62942;52.462;10.846;2024-01-16T06:07:46;99700;;;
74485;BMP280;62942;52.462;10.846;2024-01-16T06:08:46;99700;;;
74485;BMP280;62942;52.462;10.846;2024-01-16T06:09:56;99700;;;
74485;BMP280;62942;52.462;10.846;2024-01-16T06:11:06;99700;;;
74485;BMP280;62942;52.462;10.846;2024-01-16T06:12:16;99700;;;
74485;BMP280;62942;52.462;10.846;2024-01-16T06:13:17;99700;;;
74485;BMP280;62942;52.462;10.846;2024-01-16T06:14:26;99690;;;
74485;BMP280;62942;52.462;10.846;2024-01-16T06:15:26;99690;;;
74485;BMP280;62942;52.462;10.846;2024-01-16T06:16:36;99690;;;
74485;BMP280;62942;52.462;10.846;2024-01-16T06:17:46;99680;;;
74485;BMP280;62942;52.462;10.846;2024-01-16T06:18:56;99690;;;
74485;BMP280;62942;52.462;10.846;2024-01-16T06:20:06;99680;;;
74485;BMP280;62942;52.462;10.846;2024-01-16T06:21:06;99680;;;
74485;BMP280;62942;52.462;10.846;2024-01-16T06:22:16;99700;;;
74485;BMP280;62942;52.462;10.846;2024-01-16T06:23:26;99690;;;
74485;BMP280;62942;52.462;10.846;2024-01-16T06:24:36;99690;;;
74485;BMP280;62942;52.462;10.846;2024-01-16T06:25:46;99690;;;
74485;BMP280;62942;52.462;10.846;2024-01-16T06:26:46;99700;;;
74485;BMP280;62942;52.462;10.846;2024-01-16T06:27:56;99690;;;
74485;BMP280;62942;52.462;10.846;2024-01-16T06:29:06;99690;;;
74485;BMP280;62942;52.462;10.846;2024-01-16T06:30:16;99700;;;
74485;BMP280;62942;52.462;10.846;2024-01-16T06:31:26;99700;;;
74485;BMP280;62942;52.462;10.846;2024-01-16T06:32:36;99690;;;
74485;BMP280;62942;52.462;10.846;2024-01-16T06:33:46;99690;;;
74485;BMP280;62942;52.462;10.846;2024-01-16T06:34:56;99700;;;
74485;BMP280;62942;52.462;10.846;2024-01-16T06:36:06;99700;;;
74485;BMP280;62942;52.462;10.846;2024-01-16T06:37:06;99700;;;
74485;BMP280;62942;52.462;10.846;2024-01-16T06:38:16;99700;;;
74485;BMP280;62942;52.462;10.846;2024-01-16T06:39:16;99700;;;
74485;BMP280;62942;52.462;10.846;2024-01-16T06:40:16;99700;;;
74485;BMP280;62942;52.462;10.846;2024-01-16T06:41:26;99700;;;
74485;BMP280;62942;52.462;10.846;2024-01-16T06:42:26;99700;;;
74485;BMP280;62942;52.462;10.846;2024-01-16T06:43:36;99700;;;
74485;BMP280;62942;52.462;10.846;2024-01-16T06:44:46;99700;;;
74485;BMP280;62942;52.462;10.846;2024-01-16T06:45:46;99700;;;
74485;BMP280;62942;52.462;10.846;2024-01-16T06:46:46;99700;;;
74485;BMP280;62942;52.462;10.846;2024-01-16T06:47:56;99700;;;
74485;BMP280;62942;52.462;10.846;2024-01-16T06:48:56;99710;;;
74485;BMP280;62942;52.462;10.846;2024-01-16T06:50:07;99710;;;
74485;BMP280;62942;52.462;10.846;2024-01-16T06:51:16;99710;;;
74485;BMP280;62942;52.462;10.846;2024-01-16T06:52:16;99710;;;
74485;BMP280;62942;52.462;10.846;2024-01-16T06:53:26;99710;;;
74485;BMP280;62942;52.462;10.846;2024-01-16T06:54:36;99710;;;
74485;BMP280;62942;52.462;10.846;2024-01-16T06:55:47;99710;;;
74485;BMP280;62942;52.462;10.846;2024-01-16T06:56:56;99710;;;
74485;BMP280;62942;52.462;10.846;2024-01-16T06:58:06;99710;;;
74485;BMP280;62942;52.462;10.846;2024-01-16T06:59:06;99710;;;
74485;BMP280;62942;52.462;10.846;2024-01-16T07:00:16;99700;;;
74485;BMP280;62942;52.462;10.846;2024-01-16T07:01:26;99700;;;
74485;BMP280;62942;52.462;10.846;2024-01-16T07:02:36;99700;;;
74485;BMP280;62942;52.462;10.846;2024-01-16T07:03:36;99710;;;
74485;BMP280;62942;52.462;10.846;2024-01-16T07:04:36;99700;;;
74485;BMP280;62942;52.462;10.846;2024-01-16T07:05:46;99710;;;
74485;BMP280;62942;52.462;10.846;2024-01-16T07:06:46;99710;;;
74485;BMP280;62942;52.462;10.846;2024-01-16T07:07:56;99710;;;